createdAt,value
2022-09-29T00:02:10.599Z,21.20
2022-09-29T00:04:37.482Z,21.46
2022-09-29T00:07:04.293Z,20.70
2022-09-29T00:09:31.356Z,21.13
2022-09-29T00:11:58.267Z,21.06
2022-09-29T00:14:25.410Z,20.38
2022-09-29T00:16:53.235Z,21.00
2022-09-29T00:19:20.118Z,21.18
2022-09-29T00:21:46.952Z,21.07
2022-09-29T00:24:13.784Z,20.89
2022-09-29T00:26:40.629Z,20.67
2022-09-29T00:29:07.500Z,20.57
2022-09-29T00:31:34.704Z,20.70
2022-09-29T00:34:02.433Z,20.63
2022-09-29T00:36:30.422Z,20.63
2022-09-29T00:38:58.364Z,21.12
2022-09-29T00:41:27.833Z,20.89
2022-09-29T00:44:14.175Z,21.19
2022-09-29T00:46:58.513Z,21.46
2022-09-29T00:49:51.954Z,21.28
2022-09-29T00:52:23.706Z,20.72
2022-09-29T00:54:52.838Z,20.90
2022-09-29T00:57:22.415Z,20.97
2022-09-29T01:00:10.806Z,20.65
2022-09-29T01:02:40.963Z,20.73
2022-09-29T01:05:11.188Z,20.49
2022-09-29T01:07:38.148Z,20.41
2022-09-29T01:10:06.722Z,19.89
2022-09-29T01:12:33.558Z,19.96
2022-09-29T01:15:01.207Z,20.28
2022-09-29T01:17:28.313Z,20.06
2022-09-29T01:20:07.106Z,19.93
2022-09-29T01:22:49.124Z,19.91
2022-09-29T01:25:53.513Z,20.39
2022-09-29T01:28:32.159Z,20.32
2022-09-29T01:31:25.486Z,20.70
2022-09-29T01:34:05.600Z,21.04
2022-09-29T01:36:51.035Z,21.11
2022-09-29T01:39:30.445Z,21.11
2022-09-29T01:42:16.320Z,21.55
2022-09-29T01:45:08.908Z,21.29
2022-09-29T01:47:40.285Z,21.36
2022-09-29T01:50:13.168Z,21.83
2022-09-29T01:52:43.859Z,21.67
2022-09-29T01:55:13.676Z,21.50
2022-09-29T01:58:07.666Z,21.22
2022-09-29T02:00:40.042Z,20.47
2022-09-29T02:03:11.975Z,19.79
2022-09-29T02:05:40.404Z,19.07
2022-09-29T02:08:16.334Z,16.97
2022-09-29T02:11:01.597Z,17.27
2022-09-29T02:13:31.315Z,17.26
2022-09-29T02:15:58.990Z,16.45
2022-09-29T02:18:43.039Z,16.03
2022-09-29T02:21:09.912Z,14.92
2022-09-29T02:23:36.746Z,14.62
2022-09-29T02:26:04.233Z,14.99
2022-09-29T02:28:31.125Z,15.64
2022-09-29T02:30:58.026Z,15.98
2022-09-29T02:33:25.880Z,16.88
2022-09-29T02:36:10.669Z,15.16
2022-09-29T02:39:08.832Z,15.74
2022-09-29T02:41:54.229Z,15.94
2022-09-29T02:44:37.297Z,17.06
2022-09-29T02:47:43.277Z,15.72
2022-09-29T02:50:25.446Z,14.81
2022-09-29T02:53:00.497Z,15.02
2022-09-29T02:55:42.490Z,15.16
2022-09-29T02:58:21.928Z,15.32
2022-09-29T03:00:48.910Z,16.35
2022-09-29T03:03:15.820Z,15.50
2022-09-29T03:05:42.719Z,16.26
2022-09-29T03:08:09.572Z,16.50
2022-09-29T03:10:36.424Z,16.24
2022-09-29T03:13:03.265Z,16.16
2022-09-29T03:15:30.140Z,17.23
2022-09-29T03:18:00.310Z,16.92
2022-09-29T03:20:27.288Z,16.16
2022-09-29T03:22:57.770Z,16.32
2022-09-29T03:25:25.365Z,16.85
2022-09-29T03:27:52.549Z,17.02
2022-09-29T03:30:19.406Z,16.65
2022-09-29T03:32:46.495Z,16.18
2022-09-29T03:35:13.406Z,16.26
2022-09-29T03:37:40.374Z,16.90
2022-09-29T03:40:07.955Z,16.18
2022-09-29T03:42:34.983Z,15.41
2022-09-29T03:45:01.821Z,15.30
2022-09-29T03:47:28.689Z,15.63
2022-09-29T03:49:55.502Z,15.46
2022-09-29T03:52:22.411Z,14.75
2022-09-29T03:54:49.291Z,15.99
2022-09-29T03:57:16.274Z,15.96
2022-09-29T03:59:45.545Z,15.62
2022-09-29T04:02:13.046Z,16.26
2022-09-29T04:04:40.255Z,16.34
2022-09-29T04:07:07.152Z,16.67
2022-09-29T04:09:33.980Z,16.21
2022-09-29T04:12:01.020Z,16.02
2022-09-29T04:14:27.887Z,15.44
2022-09-29T04:16:54.747Z,14.95
2022-09-29T04:19:21.657Z,14.67
2022-09-29T04:21:48.511Z,14.33
2022-09-29T04:24:15.387Z,13.76
2022-09-29T04:26:42.294Z,14.02
2022-09-29T04:29:09.131Z,14.20
2022-09-29T04:31:36.016Z,13.70
2022-09-29T04:34:03.030Z,13.62
2022-09-29T04:36:29.866Z,13.66
2022-09-29T04:38:56.682Z,13.70
2022-09-29T04:41:24.395Z,14.79
2022-09-29T04:43:51.233Z,15.31
2022-09-29T04:46:18.097Z,16.40
2022-09-29T04:48:45.018Z,17.24
2022-09-29T04:51:11.955Z,16.35
2022-09-29T04:53:38.926Z,15.29
2022-09-29T04:56:07.404Z,15.09
2022-09-29T04:58:34.737Z,15.36
2022-09-29T05:01:14.783Z,14.69
2022-09-29T05:03:42.418Z,15.23
2022-09-29T05:06:10.326Z,15.20
2022-09-29T05:08:37.197Z,16.68
2022-09-29T05:11:06.335Z,16.83
2022-09-29T05:13:33.692Z,14.72
2022-09-29T05:16:01.349Z,15.19
2022-09-29T05:18:28.281Z,15.49
2022-09-29T05:21:16.208Z,14.66
2022-09-29T05:23:42.820Z,15.32
2022-09-29T05:26:10.745Z,14.45
2022-09-29T05:28:39.443Z,14.96
2022-09-29T05:31:07.969Z,14.32
2022-09-29T05:33:36.471Z,14.56
2022-09-29T05:36:08.482Z,14.43
2022-09-29T05:38:36.871Z,14.67
2022-09-29T05:41:10.407Z,14.55
2022-09-29T05:43:37.452Z,14.98
2022-09-29T05:46:05.926Z,14.00
2022-09-29T05:48:33.420Z,14.65
2022-09-29T05:51:06.388Z,14.35
2022-09-29T05:53:33.245Z,13.52
2022-09-29T05:56:03.977Z,14.32
2022-09-29T05:58:31.385Z,15.01
2022-09-29T06:00:58.484Z,14.31
2022-09-29T06:03:27.229Z,15.11
2022-09-29T06:05:55.550Z,15.32
2022-09-29T06:08:22.373Z,15.73
2022-09-29T06:10:49.212Z,16.23
2022-09-29T06:13:16.058Z,16.59
2022-09-29T06:15:42.894Z,16.59
2022-09-29T06:18:09.827Z,16.16
2022-09-29T06:20:39.308Z,16.37
2022-09-29T06:23:06.163Z,16.46
2022-09-29T06:25:33.019Z,16.71
2022-09-29T06:27:59.860Z,17.78
2022-09-29T06:30:26.759Z,18.92
2022-09-29T06:32:55.746Z,18.24
2022-09-29T06:35:41.121Z,18.42
2022-09-29T06:38:08.160Z,17.19
2022-09-29T06:40:35.074Z,16.76
2022-09-29T06:43:03.109Z,17.58
2022-09-29T06:45:29.997Z,18.48
2022-09-29T06:48:00.718Z,17.06
2022-09-29T06:50:27.580Z,16.45
2022-09-29T06:53:03.165Z,16.70
2022-09-29T06:55:31.419Z,17.02
2022-09-29T06:58:03.532Z,16.29
2022-09-29T07:00:30.885Z,15.14
2022-09-29T07:02:57.796Z,14.94
2022-09-29T07:05:24.798Z,15.96
2022-09-29T07:07:53.314Z,16.26
2022-09-29T07:10:22.506Z,15.55
2022-09-29T07:12:49.343Z,15.23
2022-09-29T07:15:16.202Z,16.01
2022-09-29T07:17:43.029Z,15.85
2022-09-29T07:20:10.013Z,15.34
2022-09-29T07:22:36.914Z,15.60
2022-09-29T07:25:04.043Z,15.45
2022-09-29T07:27:30.886Z,15.10
2022-09-29T07:30:03.746Z,15.38
2022-09-29T07:32:32.822Z,15.70
2022-09-29T07:35:03.005Z,15.86
2022-09-29T07:37:30.636Z,16.72
2022-09-29T07:39:57.559Z,16.40
2022-09-29T07:42:24.764Z,15.99
2022-09-29T07:44:52.462Z,15.43
2022-09-29T07:47:19.745Z,14.97
2022-09-29T07:49:46.594Z,15.61
2022-09-29T07:52:14.376Z,15.99
2022-09-29T07:54:41.348Z,16.47
2022-09-29T07:57:08.215Z,17.17
2022-09-29T07:59:35.069Z,18.26
2022-09-29T08:02:02.933Z,18.46
2022-09-29T08:04:29.842Z,17.35
2022-09-29T08:06:56.782Z,18.20
2022-09-29T08:09:34.343Z,18.42
2022-09-29T08:12:08.345Z,18.67
2022-09-29T08:14:35.824Z,19.10
2022-09-29T08:17:02.735Z,18.30
2022-09-29T08:19:29.616Z,16.76
2022-09-29T08:21:56.931Z,17.28
2022-09-29T08:24:25.331Z,18.26
2022-09-29T08:26:52.178Z,19.94
2022-09-29T08:29:19.067Z,18.49
2022-09-29T08:31:46.391Z,18.45
2022-09-29T08:34:14.005Z,17.99
2022-09-29T08:36:41.370Z,18.99
2022-09-29T08:39:10.599Z,18.64
2022-09-29T08:41:46.320Z,19.69
2022-09-29T08:44:37.183Z,17.93
2022-09-29T08:47:29.923Z,20.31
2022-09-29T08:50:34.227Z,21.08
2022-09-29T08:53:05.977Z,21.14
2022-09-29T08:55:41.888Z,21.76
2022-09-29T08:58:12.969Z,21.52
2022-09-29T09:01:18.986Z,21.23
2022-09-29T09:04:09.983Z,21.44
2022-09-29T09:06:52.841Z,22.21
2022-09-29T09:09:45.006Z,20.47
2022-09-29T09:12:32.892Z,22.50
2022-09-29T09:15:14.922Z,22.87
2022-09-29T09:17:41.679Z,23.48
2022-09-29T09:20:34.729Z,22.12
2022-09-29T09:23:15.986Z,20.76
2022-09-29T09:25:53.113Z,21.52
2022-09-29T09:28:36.049Z,22.33
2022-09-29T09:31:14.937Z,21.84
2022-09-29T09:34:41.400Z,22.43
2022-09-29T09:37:20.956Z,20.61
2022-09-29T09:39:52.296Z,19.84
2022-09-29T09:42:23.568Z,19.99
2022-09-29T09:44:54.368Z,20.49
2022-09-29T09:47:34.440Z,19.59
2022-09-29T09:50:04.517Z,20.75
2022-09-29T09:52:42.182Z,20.15
2022-09-29T09:58:55.259Z,21.18
2022-09-29T10:01:22.535Z,20.77
2022-09-29T10:03:49.466Z,21.89
2022-09-29T10:06:16.354Z,21.19
2022-09-29T10:08:43.418Z,19.76
2022-09-29T10:11:19.613Z,21.05
2022-09-29T10:13:47.621Z,20.94
2022-09-29T10:16:22.122Z,21.46
2022-09-29T10:18:52.874Z,22.22
2022-09-29T10:21:29.787Z,23.25
2022-09-29T10:23:57.879Z,23.45
2022-09-29T10:26:35.144Z,23.62
2022-09-29T10:29:04.992Z,22.77
2022-09-29T10:31:34.862Z,22.99
2022-09-29T10:34:24.699Z,23.11
2022-09-29T10:36:54.514Z,22.98
2022-09-29T10:39:51.094Z,23.79
2022-09-29T10:42:25.991Z,23.71
2022-09-29T10:44:55.822Z,24.52
2022-09-29T10:47:23.628Z,24.15
2022-09-29T10:50:09.441Z,23.98
2022-09-29T10:52:37.398Z,23.57
2022-09-29T10:55:04.852Z,23.51
2022-09-29T10:57:33.887Z,23.82
2022-09-29T11:00:01.047Z,24.30
2022-09-29T11:02:47.225Z,24.52
2022-09-29T11:05:20.506Z,24.11
2022-09-29T11:07:49.494Z,22.83
2022-09-29T11:10:42.397Z,20.81
2022-09-29T11:13:24.884Z,21.62
2022-09-29T11:15:51.863Z,21.83
2022-09-29T11:18:35.534Z,20.20
2022-09-29T11:21:17.873Z,20.03
2022-09-29T11:24:07.394Z,20.06
2022-09-29T11:27:11.160Z,20.34
2022-09-29T11:29:40.654Z,20.57
2022-09-29T11:32:32.073Z,19.26
2022-09-29T11:34:58.897Z,19.52
2022-09-29T11:37:47.187Z,19.38
2022-09-29T11:40:30.485Z,19.33
2022-09-29T11:43:03.335Z,19.64
2022-09-29T11:46:09.087Z,20.65
2022-09-29T11:48:47.946Z,21.13
2022-09-29T11:51:39.206Z,21.79
2022-09-29T11:54:35.107Z,22.11
2022-09-29T11:57:11.099Z,21.74
2022-09-29T11:59:41.613Z,21.55
2022-09-29T12:03:00.752Z,22.40
2022-09-29T12:06:07.839Z,22.40
2022-09-29T12:08:42.662Z,21.78
2022-09-29T12:11:44.368Z,22.01
2022-09-29T12:14:19.406Z,21.10
2022-09-29T12:16:57.718Z,20.83
2022-09-29T12:19:29.128Z,20.60
2022-09-29T12:21:59.315Z,19.71
2022-09-29T12:24:48.288Z,19.45
2022-09-29T12:27:22.076Z,19.69
2022-09-29T12:29:54.876Z,19.99
2022-09-29T12:32:35.416Z,19.65
2022-09-29T12:35:13.483Z,19.83
2022-09-29T12:38:08.879Z,19.26
2022-09-29T12:40:44.232Z,19.11
2022-09-29T12:43:19.888Z,18.49
2022-09-29T12:46:19.169Z,18.51
2022-09-29T12:49:02.513Z,19.00
2022-09-29T12:51:38.965Z,19.55
2022-09-29T12:54:05.752Z,19.10
2022-09-29T12:56:39.339Z,19.64
2022-09-29T12:59:18.050Z,19.69
2022-09-29T13:01:49.709Z,19.91
2022-09-29T13:04:41.821Z,20.11
2022-09-29T13:07:29.895Z,20.14
2022-09-29T13:10:01.820Z,20.28
2022-09-29T13:12:28.749Z,20.66
2022-09-29T13:15:32.036Z,21.07
2022-09-29T13:18:39.425Z,21.40
2022-09-29T13:21:21.527Z,21.53
2022-09-29T13:24:16.042Z,21.83
2022-09-29T13:27:15.982Z,22.02
2022-09-29T13:29:57.479Z,21.97
2022-09-29T13:32:24.561Z,22.71
2022-09-29T13:34:59.276Z,22.67
2022-09-29T13:37:39.346Z,22.56
2022-09-29T13:40:17.421Z,22.15
2022-09-29T13:42:45.963Z,21.78
2022-09-29T13:45:18.473Z,21.39
2022-09-29T13:47:55.365Z,21.49
2022-09-29T13:50:42.040Z,21.53
2022-09-29T13:53:28.372Z,21.81
2022-09-29T13:56:05.151Z,22.00
2022-09-29T13:58:44.028Z,21.80
2022-09-29T14:01:12.833Z,22.55
2022-09-29T14:03:44.533Z,21.71
2022-09-29T14:06:40.180Z,21.52
2022-09-29T14:09:14.152Z,21.51
2022-09-29T14:11:43.817Z,21.69
2022-09-29T14:14:33.546Z,22.19
2022-09-29T14:17:21.347Z,22.36
2022-09-29T14:20:06.729Z,22.05
2022-09-29T14:22:36.568Z,22.10
2022-09-29T14:25:11.072Z,22.41
2022-09-29T14:28:01.711Z,21.24
2022-09-29T14:30:44.087Z,21.70
2022-09-29T14:33:14.530Z,22.12
2022-09-29T14:36:09.241Z,22.42
2022-09-29T14:39:02.821Z,22.95
2022-09-29T14:41:34.473Z,23.01
2022-09-29T14:44:06.698Z,22.59
2022-09-29T14:46:58.143Z,22.75
2022-09-29T14:50:11.799Z,23.09
2022-09-29T14:53:03.399Z,22.74
2022-09-29T14:55:38.446Z,22.53
2022-09-29T14:58:27.279Z,22.94
2022-09-29T15:01:25.876Z,24.02
2022-09-29T15:03:53.573Z,23.21
2022-09-29T15:06:22.501Z,22.83
2022-09-29T15:09:01.724Z,23.07
2022-09-29T15:11:38.440Z,23.11
2022-09-29T15:14:21.325Z,23.20
2022-09-29T15:17:20.135Z,23.13
2022-09-29T15:20:01.724Z,22.47
2022-09-29T15:22:45.607Z,22.32
2022-09-29T15:25:29.656Z,22.87
2022-09-29T15:28:03.284Z,22.95
2022-09-29T15:30:30.947Z,22.15
2022-09-29T15:33:21.118Z,22.29
2022-09-29T15:36:05.815Z,21.67
2022-09-29T15:38:38.492Z,22.04
2022-09-29T15:41:16.996Z,22.02
2022-09-29T15:43:57.977Z,22.65
2022-09-29T15:46:36.679Z,22.75
2022-09-29T15:49:08.483Z,22.13
2022-09-29T15:51:36.230Z,22.04
2022-09-29T15:54:17.267Z,21.70
2022-09-29T15:57:02.801Z,22.30
2022-09-29T15:59:53.423Z,22.06
2022-09-29T16:02:32.460Z,21.64
2022-09-29T16:05:31.914Z,21.65
2022-09-29T16:08:07.623Z,22.57
2022-09-29T16:10:39.696Z,22.08
2022-09-29T16:13:13.623Z,22.10
2022-09-29T16:15:49.366Z,21.50
2022-09-29T16:18:21.017Z,21.43
2022-09-29T16:20:48.099Z,22.29
2022-09-29T16:23:30.398Z,21.82
2022-09-29T16:26:14.545Z,22.08
2022-09-29T16:29:10.570Z,21.34
2022-09-29T16:31:42.842Z,21.06
2022-09-29T16:34:23.117Z,20.33
2022-09-29T16:36:50.008Z,19.93
2022-09-29T16:39:20.194Z,19.89
2022-09-29T16:41:58.831Z,20.41
2022-09-29T16:44:56.791Z,20.56
2022-09-29T16:47:29.297Z,20.97
2022-09-29T16:50:13.612Z,20.99
2022-09-29T16:52:51.019Z,20.79
2022-09-29T16:55:31.045Z,21.39
2022-09-29T16:58:02.543Z,20.92
2022-09-29T17:00:30.401Z,20.75
2022-09-29T17:03:05.895Z,20.75
2022-09-29T17:05:49.380Z,20.13
2022-09-29T17:08:27.433Z,20.18
2022-09-29T17:10:56.871Z,21.29
2022-09-29T17:13:24.515Z,21.86
2022-09-29T17:15:55.121Z,19.99
2022-09-29T17:18:23.297Z,20.07
2022-09-29T17:20:50.125Z,21.09
2022-09-29T17:23:16.985Z,20.72
2022-09-29T17:25:47.807Z,20.57
2022-09-29T17:28:17.451Z,20.45
2022-09-29T17:30:48.344Z,21.13
2022-09-29T17:33:16.751Z,21.09
2022-09-29T17:35:55.830Z,20.72
2022-09-29T17:38:24.168Z,20.92
2022-09-29T17:41:03.850Z,21.50
2022-09-29T17:43:31.653Z,21.84
2022-09-29T17:45:59.709Z,20.45
2022-09-29T17:48:28.035Z,21.30
2022-09-29T17:50:56.702Z,20.47
2022-09-29T17:53:25.531Z,20.00
2022-09-29T17:55:57.082Z,19.75
2022-09-29T17:58:24.525Z,20.41
2022-09-29T18:00:53.292Z,20.73
2022-09-29T18:03:21.277Z,21.03
2022-09-29T18:06:00.157Z,20.77
2022-09-29T18:08:29.553Z,20.49
2022-09-29T18:10:59.180Z,20.65
2022-09-29T18:13:27.853Z,21.02
2022-09-29T18:15:55.920Z,20.36
2022-09-29T18:18:23.550Z,20.33
2022-09-29T18:20:50.909Z,19.82
2022-09-29T18:23:19.522Z,18.37
2022-09-29T18:25:48.532Z,18.88
2022-09-29T18:28:16.390Z,19.84
2022-09-29T18:30:44.574Z,20.10
2022-09-29T18:33:16.638Z,19.76
2022-09-29T18:35:53.734Z,19.88
2022-09-29T18:38:21.243Z,19.59
2022-09-29T18:40:48.891Z,19.17
2022-09-29T18:43:15.752Z,19.05
2022-09-29T18:45:43.983Z,19.13
2022-09-29T18:48:15.559Z,18.98
2022-09-29T18:50:45.213Z,19.01
2022-09-29T18:53:13.783Z,19.39
2022-09-29T18:55:44.873Z,19.20
2022-09-29T18:58:16.300Z,18.83
2022-09-29T19:00:55.466Z,19.30
2022-09-29T19:03:27.337Z,18.59
2022-09-29T19:05:55.609Z,18.77
2022-09-29T19:08:22.868Z,19.59
2022-09-29T19:10:52.391Z,19.95
2022-09-29T19:13:19.651Z,20.06
2022-09-29T19:15:50.563Z,20.22
2022-09-29T19:18:22.692Z,20.09
2022-09-29T19:20:55.319Z,19.82
2022-09-29T19:23:23.416Z,20.70
2022-09-29T19:25:58.668Z,21.22
2022-09-29T19:28:27.462Z,20.56
2022-09-29T19:30:57.335Z,19.77
2022-09-29T19:33:24.405Z,19.73
2022-09-29T19:36:07.818Z,19.63
2022-09-29T19:38:36.503Z,19.24
2022-09-29T19:41:04.599Z,19.27
2022-09-29T19:43:32.477Z,19.55
2022-09-29T19:46:09.862Z,19.85
2022-09-29T19:48:37.188Z,19.34
2022-09-29T19:51:22.952Z,19.80
2022-09-29T19:53:50.207Z,21.12
2022-09-29T19:56:17.372Z,20.90
2022-09-29T19:58:44.369Z,20.94
2022-09-29T20:01:12.353Z,19.66
2022-09-29T20:03:39.610Z,18.79
2022-09-29T20:06:15.755Z,18.21
2022-09-29T20:08:42.609Z,18.33
2022-09-29T20:11:11.215Z,18.62
2022-09-29T20:13:38.988Z,17.43
2022-09-29T20:16:12.910Z,17.90
2022-09-29T20:18:39.798Z,17.60
2022-09-29T20:21:11.200Z,16.32
2022-09-29T20:23:39.478Z,16.53
2022-09-29T20:26:11.755Z,16.29
2022-09-29T20:28:38.985Z,17.10
2022-09-29T20:31:07.828Z,16.94
2022-09-29T20:33:36.432Z,16.29
2022-09-29T20:36:05.986Z,17.84
2022-09-29T20:38:34.618Z,18.56
2022-09-29T20:41:02.505Z,18.36
2022-09-29T20:43:29.485Z,18.86
2022-09-29T20:46:44.676Z,18.08
2022-09-29T20:49:11.563Z,16.35
2022-09-29T20:51:38.693Z,17.64
2022-09-29T20:54:05.572Z,18.11
2022-09-29T20:56:36.123Z,18.43
2022-09-29T20:59:03.431Z,17.73
2022-09-29T21:01:31.979Z,16.96
2022-09-29T21:04:07.674Z,16.62
2022-09-29T21:06:41.104Z,17.79
2022-09-29T21:09:11.279Z,18.43
2022-09-29T21:11:40.245Z,17.66
2022-09-29T21:14:10.476Z,17.39
2022-09-29T21:16:41.948Z,19.62
2022-09-29T21:19:12.635Z,17.43
2022-09-29T21:21:41.173Z,17.15
2022-09-29T21:24:12.486Z,16.77
2022-09-29T21:26:39.704Z,17.75
2022-09-29T21:29:09.059Z,19.88
2022-09-29T21:31:36.293Z,19.94
2022-09-29T21:34:05.563Z,17.76
2022-09-29T21:36:34.082Z,17.01
2022-09-29T21:39:05.028Z,16.76
2022-09-29T21:41:39.401Z,16.60
2022-09-29T21:44:40.288Z,18.57
2022-09-29T21:47:07.297Z,18.96
2022-09-29T21:49:34.157Z,17.59
2022-09-29T21:52:02.141Z,18.30
2022-09-29T21:54:30.454Z,19.23
2022-09-29T21:56:57.492Z,19.05
2022-09-29T21:59:24.430Z,18.39
2022-09-29T22:01:52.454Z,17.78
2022-09-29T22:04:32.882Z,17.23
2022-09-29T22:07:01.316Z,17.66
2022-09-29T22:09:28.256Z,17.71
2022-09-29T22:11:55.162Z,17.87
2022-09-29T22:14:26.732Z,17.75
2022-09-29T22:16:53.634Z,18.16
2022-09-29T22:19:24.710Z,17.48
2022-09-29T22:21:53.608Z,16.96
2022-09-29T22:24:20.936Z,17.27
2022-09-29T22:26:48.032Z,18.07
2022-09-29T22:29:15.047Z,16.91
2022-09-29T22:31:42.031Z,17.68
2022-09-29T22:34:09.184Z,17.27
2022-09-29T22:36:36.080Z,17.83
2022-09-29T22:39:04.558Z,17.57
2022-09-29T22:41:31.492Z,17.98
2022-09-29T22:44:08.207Z,18.14
2022-09-29T22:46:35.607Z,17.34
2022-09-29T22:49:02.774Z,17.74
2022-09-29T22:51:29.714Z,19.01
2022-09-29T22:53:57.558Z,18.44
2022-09-29T22:56:28.937Z,19.31
2022-09-29T22:58:59.756Z,19.43
2022-09-29T23:01:27.191Z,19.99
2022-09-29T23:04:01.487Z,18.88
2022-09-29T23:06:28.438Z,17.75
2022-09-29T23:08:55.776Z,19.07
2022-09-29T23:11:23.608Z,19.30
2022-09-29T23:13:50.643Z,18.36
2022-09-29T23:16:17.815Z,18.62
2022-09-29T23:18:45.886Z,17.96
2022-09-29T23:21:14.858Z,18.24
2022-09-29T23:23:42.277Z,17.84
2022-09-29T23:26:10.216Z,17.46
2022-09-29T23:28:37.381Z,17.42
2022-09-29T23:31:08.153Z,17.72
2022-09-29T23:33:35.119Z,18.00
2022-09-29T23:36:14.196Z,17.67
2022-09-29T23:39:01.187Z,18.13
2022-09-29T23:41:30.228Z,17.95
2022-09-29T23:43:59.299Z,17.64
2022-09-29T23:46:31.854Z,17.66
2022-09-29T23:49:00.041Z,16.23
2022-09-29T23:51:33.336Z,16.18
2022-09-29T23:54:00.818Z,16.80
2022-09-29T23:56:28.477Z,16.20
2022-09-29T23:58:55.605Z,16.19
